Time;durP1;ratioP1;P1;durP2;ratioP2;P2;SDS_P1;SDS_P2;PMS_P1;PMS_P2;Temp;Humidity;BMP_temperature;BMP_pressure;BME280_temperature;BME280_humidity;BME280_pressure;Samples;Min_cycle;Max_cycle;Signal;HPM_P1;HPM_P2
2022/10/25 00:01:26;;;;;;;10.67;2.50;;;13.40;99.90;;;;;;5121206;27;20203;-58
2022/10/25 00:03:55;;;;;;;6.97;2.20;;;13.50;99.90;;;;;;5115176;28;20229;-58
2022/10/25 00:06:25;;;;;;;5.03;2.33;;;13.50;99.90;;;;;;5115923;28;20230;-59
2022/10/25 00:08:53;;;;;;;5.67;2.30;;;13.60;99.90;;;;;;5115642;28;20187;-58
2022/10/25 00:11:24;;;;;;;8.87;2.40;;;13.60;99.90;;;;;;5115818;28;20190;-57
2022/10/25 00:13:54;;;;;;;2.67;1.87;;;13.60;99.90;;;;;;5115736;28;20205;-58
2022/10/25 00:16:25;;;;;;;8.57;2.40;;;13.60;99.90;;;;;;5115188;28;20248;-58
2022/10/25 00:18:54;;;;;;;5.77;2.20;;;13.70;99.90;;;;;;5077829;28;20203;-58
2022/10/25 00:21:22;;;;;;;13.13;2.43;;;13.70;99.90;;;;;;5095260;28;20249;-58
2022/10/25 00:23:53;;;;;;;10.80;2.20;;;13.70;99.90;;;;;;5105189;28;20205;-58
2022/10/25 00:26:21;;;;;;;7.87;2.37;;;13.70;99.90;;;;;;5114995;28;20244;-57
2022/10/25 00:28:53;;;;;;;6.93;2.37;;;13.70;99.90;;;;;;5115251;28;20237;-59
2022/10/25 00:31:22;;;;;;;7.33;2.10;;;13.70;99.90;;;;;;5115347;28;20630;-58
2022/10/25 00:33:51;;;;;;;7.90;2.37;;;13.70;99.90;;;;;;5105594;28;20211;-58
2022/10/25 00:36:21;;;;;;;5.60;2.10;;;13.70;99.90;;;;;;5110717;28;20285;-58
2022/10/25 00:38:50;;;;;;;10.33;2.17;;;13.70;99.90;;;;;;5114974;28;20191;-58
2022/10/25 00:41:22;;;;;;;5.37;1.90;;;13.70;99.90;;;;;;5115269;28;20616;-58
2022/10/25 00:43:52;;;;;;;5.30;2.73;;;13.80;99.90;;;;;;5118866;27;20185;-58
2022/10/25 00:46:24;;;;;;;7.03;2.30;;;13.70;99.90;;;;;;5121325;27;20209;-59
2022/10/25 00:48:58;;;;;;;10.90;2.27;;;13.70;99.90;;;;;;5114598;28;20191;-58
2022/10/25 00:51:30;;;;;;;8.03;2.40;;;13.70;99.90;;;;;;5114802;28;20596;-58
2022/10/25 00:53:58;;;;;;;9.30;2.30;;;13.60;99.90;;;;;;5114284;28;20207;-59
2022/10/25 00:56:32;;;;;;;8.80;2.30;;;13.60;99.90;;;;;;5114281;28;20539;-58
2022/10/25 00:59:03;;;;;;;6.37;2.40;;;13.60;99.90;;;;;;5114537;27;20213;-58
2022/10/25 01:01:34;;;;;;;11.33;2.40;;;13.60;99.90;;;;;;5101189;28;20201;-58
2022/10/25 01:04:07;;;;;;;6.57;2.20;;;13.50;99.90;;;;;;5117773;27;20194;-59
2022/10/25 01:06:38;;;;;;;5.83;2.30;;;13.50;99.90;;;;;;5103480;28;20233;-58
2022/10/25 01:09:08;;;;;;;6.23;2.10;;;13.60;99.90;;;;;;5112236;28;20202;-58
2022/10/25 01:11:38;;;;;;;6.63;2.33;;;13.60;99.90;;;;;;5109612;28;20192;-60
2022/10/25 01:14:09;;;;;;;6.97;2.43;;;13.60;99.90;;;;;;5095352;28;20210;-58
2022/10/25 01:16:46;;;;;;;9.97;2.60;;;13.60;99.90;;;;;;5114299;28;20206;-59
2022/10/25 01:19:36;;;;;;;6.20;1.80;;;13.60;99.90;;;;;;5114669;28;20637;-59
2022/10/25 01:22:08;;;;;;;7.90;2.40;;;13.60;99.90;;;;;;5100305;28;20190;-58
2022/10/25 01:25:20;;;;;;;5.33;2.40;;;13.60;99.90;;;;;;5114280;28;20186;-60
2022/10/25 01:28:09;;;;;;;10.60;2.37;;;13.60;99.90;;;;;;5012216;28;20684;-59
2022/10/25 01:31:12;;;;;;;5.97;2.20;;;13.60;99.90;;;;;;5011852;28;20202;-59
2022/10/25 01:33:47;;;;;;;10.43;2.70;;;13.60;99.90;;;;;;5071221;28;20260;-60
2022/10/25 01:36:22;;;;;;;7.47;2.43;;;13.60;99.90;;;;;;5114005;28;20214;-59
2022/10/25 01:38:58;;;;;;;9.57;2.57;;;13.60;99.90;;;;;;5109609;28;20551;-59
2022/10/25 01:41:31;;;;;;;11.10;2.40;;;13.50;99.90;;;;;;5113936;28;20198;-59
2022/10/25 01:44:12;;;;;;;3.80;2.50;;;13.60;99.90;;;;;;5113946;28;20198;-59
2022/10/25 01:46:45;;;;;;;5.63;2.40;;;13.50;99.90;;;;;;5125445;27;20201;-59
2022/10/25 01:49:23;;;;;;;10.83;2.60;;;13.50;99.90;;;;;;5113915;28;20645;-59
2022/10/25 01:51:51;;;;;;;5.73;2.63;;;13.50;99.90;;;;;;5111813;28;20194;-60
2022/10/25 01:54:23;;;;;;;7.40;2.60;;;13.50;99.90;;;;;;5097467;28;20210;-59
2022/10/25 01:57:05;;;;;;;2.73;2.50;;;13.40;99.90;;;;;;5113861;28;20198;-59
2022/10/25 01:59:54;;;;;;;6.83;2.93;;;13.40;99.90;;;;;;5110351;28;20191;-60
2022/10/25 02:02:25;;;;;;;8.83;2.50;;;13.30;99.90;;;;;;5089124;28;20193;-59
2022/10/25 02:05:03;;;;;;;5.30;2.50;;;13.40;99.90;;;;;;5113818;28;20191;-60
2022/10/25 02:07:37;;;;;;;6.87;2.20;;;13.30;99.90;;;;;;5095338;28;20585;-59
2022/10/25 02:10:10;;;;;;;7.77;2.43;;;13.30;99.90;;;;;;5095493;28;20186;-59
2022/10/25 02:12:48;;;;;;;8.13;2.83;;;13.30;99.90;;;;;;5094792;28;20255;-59
2022/10/25 02:15:24;;;;;;;10.17;2.27;;;13.30;99.90;;;;;;5113672;28;20210;-60
2022/10/25 02:17:57;;;;;;;6.53;2.03;;;13.30;99.90;;;;;;5113623;28;20208;-59
2022/10/25 02:20:34;;;;;;;10.00;2.40;;;13.40;99.90;;;;;;5113783;28;20186;-59
2022/10/25 02:23:05;;;;;;;7.60;2.40;;;13.40;99.90;;;;;;5106635;28;20207;-59
2022/10/25 02:25:35;;;;;;;9.17;2.40;;;13.40;99.90;;;;;;5075574;28;20172;-59
2022/10/25 02:28:08;;;;;;;10.50;2.50;;;13.40;99.90;;;;;;5106864;28;20679;-59
2022/10/25 02:30:38;;;;;;;8.03;2.67;;;13.40;99.90;;;;;;5095380;28;20187;-59
2022/10/25 02:33:07;;;;;;;10.20;2.40;;;13.30;99.90;;;;;;5110777;28;20672;-60
2022/10/25 02:35:36;;;;;;;10.57;2.60;;;13.30;99.90;;;;;;5113402;28;20217;-59
2022/10/25 02:38:05;;;;;;;6.63;2.17;;;13.30;99.90;;;;;;5083794;28;20199;-59
2022/10/25 02:40:33;;;;;;;7.97;2.20;;;13.40;99.90;;;;;;5101887;28;20198;-59
2022/10/25 02:43:02;;;;;;;4.10;2.10;;;13.40;99.90;;;;;;5105052;28;20206;-59
2022/10/25 02:45:30;;;;;;;6.50;2.57;;;13.40;99.90;;;;;;5108457;28;20179;-59
2022/10/25 02:47:58;;;;;;;5.87;2.60;;;13.30;99.90;;;;;;5113208;28;20201;-59
2022/10/25 02:50:26;;;;;;;6.83;2.53;;;13.30;99.90;;;;;;5095253;28;20194;-59
2022/10/25 02:52:56;;;;;;;9.83;2.77;;;13.30;99.90;;;;;;5113098;28;20190;-59
2022/10/25 02:55:24;;;;;;;5.47;2.23;;;13.30;99.90;;;;;;5113054;28;20305;-59
2022/10/25 02:57:52;;;;;;;9.10;2.37;;;13.20;99.90;;;;;;5089729;28;20198;-59
2022/10/25 03:00:21;;;;;;;8.03;2.33;;;13.20;99.90;;;;;;5103398;28;20236;-59
2022/10/25 03:02:49;;;;;;;5.07;2.70;;;13.20;99.90;;;;;;5094857;28;20186;-59
2022/10/25 03:05:17;;;;;;;7.00;2.17;;;13.30;99.90;;;;;;5094985;28;20195;-59
2022/10/25 03:07:45;;;;;;;8.47;2.50;;;13.30;99.90;;;;;;5112960;28;20231;-59
2022/10/25 03:10:15;;;;;;;11.60;2.43;;;13.20;99.90;;;;;;5113007;28;20193;-59
2022/10/25 03:12:43;;;;;;;6.57;2.47;;;13.20;99.90;;;;;;5113028;28;20202;-59
2022/10/25 03:15:13;;;;;;;8.53;2.70;;;13.20;99.90;;;;;;5102632;28;20208;-59
2022/10/25 03:17:41;;;;;;;6.10;2.57;;;13.10;99.90;;;;;;5092587;28;20191;-59
2022/10/25 03:20:10;;;;;;;6.33;2.53;;;13.10;99.90;;;;;;5092556;28;20179;-59
2022/10/25 03:22:38;;;;;;;11.87;2.83;;;13.10;99.90;;;;;;5092645;28;20592;-59
2022/10/25 03:25:07;;;;;;;6.77;3.00;;;13.10;99.90;;;;;;5112973;28;20537;-59
2022/10/25 03:27:42;;;;;;;9.47;2.67;;;13.10;99.90;;;;;;5098252;28;20174;-59
2022/10/25 03:30:12;;;;;;;7.67;2.83;;;13.00;99.90;;;;;;5099581;28;20587;-60
2022/10/25 03:32:40;;;;;;;7.73;2.57;;;13.00;99.90;;;;;;5108549;28;20645;-59
2022/10/25 03:35:09;;;;;;;5.13;2.60;;;13.00;99.90;;;;;;5096710;28;20297;-59
2022/10/25 03:37:37;;;;;;;6.40;2.80;;;12.90;99.90;;;;;;5116542;28;20209;-59
2022/10/25 03:40:06;;;;;;;8.77;2.77;;;12.90;99.90;;;;;;5115392;28;20637;-59
2022/10/25 03:42:34;;;;;;;5.10;2.60;;;12.90;99.90;;;;;;5110480;28;20188;-59
2022/10/25 03:45:05;;;;;;;9.30;3.20;;;12.80;99.90;;;;;;5115733;28;20230;-59
2022/10/25 03:47:34;;;;;;;7.73;2.80;;;12.80;99.90;;;;;;5115741;28;20199;-60
2022/10/25 03:50:02;;;;;;;6.53;3.13;;;12.80;99.90;;;;;;5116064;28;20187;-60
2022/10/25 03:52:30;;;;;;;7.10;3.00;;;12.90;99.90;;;;;;5098399;28;20202;-59
2022/10/25 03:54:59;;;;;;;5.70;3.17;;;12.90;99.90;;;;;;5097659;28;20554;-59
2022/10/25 04:01:17;;;;;;;8.57;3.93;;;12.90;99.90;;;;;;5080482;28;20179;-59
2022/10/25 04:03:59;;;;;;;10.10;4.47;;;12.80;99.90;;;;;;5116236;28;20183;-58
2022/10/25 04:06:27;;;;;;;10.23;4.20;;;12.80;99.90;;;;;;5097174;28;20267;-59
2022/10/25 04:08:57;;;;;;;13.33;4.70;;;12.80;99.90;;;;;;5097489;28;20191;-57
2022/10/25 04:11:25;;;;;;;9.63;5.43;;;12.80;99.90;;;;;;5115508;28;20711;-58
2022/10/25 04:13:53;;;;;;;15.67;4.93;;;12.80;99.90;;;;;;5097842;28;20282;-57
2022/10/25 04:16:24;;;;;;;8.63;5.37;;;12.80;99.90;;;;;;5115767;28;20211;-56
2022/10/25 04:18:52;;;;;;;15.43;6.43;;;12.70;99.90;;;;;;5115195;28;20580;-57
2022/10/25 04:21:21;;;;;;;11.67;6.03;;;12.80;99.90;;;;;;5097249;28;20248;-57
2022/10/25 04:23:50;;;;;;;13.70;6.00;;;12.70;99.90;;;;;;5097464;28;20198;-58
2022/10/25 04:26:19;;;;;;;14.00;6.93;;;12.70;99.90;;;;;;5115696;28;20186;-57
2022/10/25 04:28:50;;;;;;;12.63;6.93;;;12.70;99.90;;;;;;5115196;28;20656;-57
2022/10/25 04:31:20;;;;;;;13.53;6.60;;;12.70;99.90;;;;;;5096920;28;20195;-57
2022/10/25 04:33:50;;;;;;;10.30;6.67;;;12.70;99.90;;;;;;5102093;28;20190;-57
2022/10/25 04:36:19;;;;;;;12.70;7.23;;;12.70;99.90;;;;;;5114645;28;20207;-58
2022/10/25 04:38:48;;;;;;;12.77;7.47;;;12.70;99.90;;;;;;5096810;28;20556;-58
2022/10/25 04:41:17;;;;;;;14.50;6.83;;;12.70;99.90;;;;;;5096657;28;20186;-58
2022/10/25 04:43:45;;;;;;;14.07;6.70;;;12.70;99.90;;;;;;5102634;28;20259;-57
2022/10/25 04:46:14;;;;;;;12.37;6.50;;;12.70;99.90;;;;;;5115100;28;20187;-58
2022/10/25 04:48:43;;;;;;;12.20;7.30;;;12.70;99.90;;;;;;5113236;28;20205;-58
2022/10/25 04:51:13;;;;;;;13.73;7.20;;;12.70;99.90;;;;;;5114917;28;20197;-58
2022/10/25 04:53:41;;;;;;;14.47;6.50;;;12.70;99.90;;;;;;5112792;28;20691;-58
2022/10/25 04:56:11;;;;;;;12.70;7.20;;;12.70;99.90;;;;;;5113932;28;20210;-57
2022/10/25 04:58:40;;;;;;;16.97;7.37;;;12.70;99.90;;;;;;5106020;28;20195;-58
2022/10/25 05:01:10;;;;;;;13.53;6.70;;;12.70;99.90;;;;;;5107703;28;20194;-57
2022/10/25 05:03:38;;;;;;;21.03;7.90;;;12.60;99.90;;;;;;5105102;28;20191;-58
2022/10/25 05:06:08;;;;;;;13.10;6.47;;;12.60;99.90;;;;;;5105221;28;20593;-57
2022/10/25 05:08:39;;;;;;;14.27;7.40;;;12.60;99.90;;;;;;5104028;28;20195;-58
2022/10/25 05:11:08;;;;;;;17.03;7.40;;;12.60;99.90;;;;;;5086072;28;20290;-57
2022/10/25 05:13:38;;;;;;;11.00;7.37;;;12.60;99.90;;;;;;5082100;28;20249;-58
2022/10/25 05:16:07;;;;;;;12.97;7.30;;;12.50;99.90;;;;;;5095244;28;20234;-58
2022/10/25 05:18:35;;;;;;;18.93;7.47;;;12.50;99.90;;;;;;5095893;28;20553;-58
2022/10/25 05:21:06;;;;;;;15.17;8.13;;;12.50;99.90;;;;;;5114082;28;20194;-57
2022/10/25 05:23:35;;;;;;;17.23;7.63;;;12.50;99.90;;;;;;5114149;28;20167;-58
2022/10/25 05:26:07;;;;;;;13.20;7.40;;;12.50;99.90;;;;;;5114341;28;20197;-59
2022/10/25 05:28:37;;;;;;;17.27;7.37;;;12.60;99.90;;;;;;5106502;28;20194;-59
2022/10/25 05:31:06;;;;;;;17.63;6.93;;;12.60;99.90;;;;;;5114425;28;20183;-59
2022/10/25 05:33:35;;;;;;;10.53;7.00;;;12.60;99.90;;;;;;5108197;28;20214;-58
2022/10/25 05:36:04;;;;;;;11.57;6.57;;;12.50;99.90;;;;;;5108873;28;20593;-58
2022/10/25 05:38:35;;;;;;;14.53;6.50;;;12.50;99.90;;;;;;5109399;28;20198;-58
2022/10/25 05:41:07;;;;;;;12.93;6.20;;;12.50;99.90;;;;;;5113470;28;20187;-58
2022/10/25 05:43:36;;;;;;;16.83;6.40;;;12.50;99.90;;;;;;5111062;28;20211;-59
2022/10/25 05:46:06;;;;;;;16.80;6.13;;;12.50;99.90;;;;;;5112184;28;20175;-58
2022/10/25 05:48:36;;;;;;;14.20;5.60;;;12.40;99.90;;;;;;5075343;28;20198;-59
2022/10/25 05:51:12;;;;;;;9.30;5.00;;;12.50;99.90;;;;;;5091278;28;20229;-58
2022/10/25 05:54:01;;;;;;;13.17;5.50;;;12.50;99.90;;;;;;5101932;28;20203;-59
2022/10/25 05:56:33;;;;;;;18.87;5.27;;;12.50;99.90;;;;;;5099473;28;20217;-58
2022/10/25 05:59:06;;;;;;;13.47;5.40;;;12.40;99.90;;;;;;5113337;28;20195;-58
2022/10/25 06:01:36;;;;;;;12.20;4.70;;;12.40;99.90;;;;;;5114013;28;20186;-59
2022/10/25 06:04:05;;;;;;;16.03;4.70;;;12.30;99.90;;;;;;5113563;28;20201;-59
2022/10/25 06:06:34;;;;;;;7.53;4.07;;;12.30;99.90;;;;;;5106787;28;20302;-58
2022/10/25 06:09:03;;;;;;;14.07;4.47;;;12.30;99.90;;;;;;5107535;28;20191;-58
2022/10/25 06:11:33;;;;;;;11.57;4.27;;;12.30;99.90;;;;;;5113681;28;20206;-59
2022/10/25 06:14:01;;;;;;;11.30;3.43;;;12.30;99.90;;;;;;5113591;28;20277;-58
2022/10/25 06:16:30;;;;;;;15.50;4.03;;;12.30;99.90;;;;;;5113566;28;20210;-59
2022/10/25 06:18:59;;;;;;;10.33;3.43;;;12.30;99.90;;;;;;5094882;28;20205;-59
2022/10/25 06:21:29;;;;;;;10.63;3.50;;;12.40;99.90;;;;;;5113545;28;20195;-58
2022/10/25 06:23:59;;;;;;;9.00;3.13;;;12.30;99.90;;;;;;5105573;28;20203;-58
2022/10/25 06:26:29;;;;;;;7.53;3.33;;;12.30;99.90;;;;;;5073518;28;20193;-59
2022/10/25 06:29:04;;;;;;;14.23;4.40;;;12.30;99.90;;;;;;5078528;28;20661;-59
2022/10/25 06:31:34;;;;;;;15.00;3.10;;;12.30;99.90;;;;;;5113414;28;20186;-58
2022/10/25 06:34:04;;;;;;;11.90;3.23;;;12.30;99.90;;;;;;5113199;28;20191;-58
2022/10/25 06:36:33;;;;;;;12.77;4.00;;;12.30;99.90;;;;;;5095396;28;20723;-59
2022/10/25 06:39:01;;;;;;;14.23;3.70;;;12.30;99.90;;;;;;5098991;28;20195;-59
2022/10/25 06:41:35;;;;;;;11.63;3.63;;;12.30;99.90;;;;;;5101376;28;20202;-59
2022/10/25 06:44:06;;;;;;;8.37;3.43;;;12.30;99.90;;;;;;5095058;28;20210;-59
2022/10/25 06:46:37;;;;;;;13.03;3.53;;;12.30;99.90;;;;;;5095263;28;20187;-59
2022/10/25 06:49:25;;;;;;;12.07;3.53;;;12.30;99.90;;;;;;5090148;28;20572;-58
2022/10/25 06:51:54;;;;;;;8.87;3.60;;;12.30;99.90;;;;;;5109158;28;20202;-59
2022/10/25 06:54:24;;;;;;;7.33;3.23;;;12.40;99.90;;;;;;5074990;28;20199;-59
2022/10/25 06:56:52;;;;;;;14.77;3.67;;;12.50;99.90;;;;;;5108261;28;20212;-58
2022/10/25 06:59:22;;;;;;;10.17;3.87;;;12.50;99.90;;;;;;5116774;28;20195;-58
2022/10/25 07:01:51;;;;;;;11.20;3.30;;;12.50;99.90;;;;;;5116838;28;20552;-59
2022/10/25 07:04:19;;;;;;;11.93;3.20;;;12.60;99.90;;;;;;5100664;28;20554;-59
2022/10/25 07:06:48;;;;;;;11.13;3.40;;;12.60;99.90;;;;;;5116450;28;20253;-58
2022/10/25 07:09:21;;;;;;;11.23;3.47;;;12.70;99.90;;;;;;5113121;28;20249;-59
2022/10/25 07:11:49;;;;;;;11.73;3.37;;;12.70;99.90;;;;;;5098010;28;20191;-59
2022/10/25 07:14:17;;;;;;;11.00;3.60;;;12.80;99.90;;;;;;5108326;28;20637;-59
2022/10/25 07:16:47;;;;;;;11.00;3.13;;;12.80;99.90;;;;;;5110924;28;20221;-58
2022/10/25 07:19:15;;;;;;;9.80;3.50;;;12.80;99.90;;;;;;5095383;28;20644;-58
2022/10/25 07:21:45;;;;;;;13.50;3.53;;;12.80;99.90;;;;;;5096386;28;20211;-58
2022/10/25 07:24:13;;;;;;;13.90;3.70;;;12.90;99.90;;;;;;5102445;28;20230;-58
2022/10/25 07:26:41;;;;;;;11.00;3.53;;;13.00;99.90;;;;;;5116581;28;20194;-59
2022/10/25 07:29:10;;;;;;;13.90;4.27;;;13.00;99.90;;;;;;5116319;28;20190;-58
2022/10/25 07:31:40;;;;;;;12.73;3.13;;;13.00;99.90;;;;;;5116400;28;20553;-58
2022/10/25 07:34:12;;;;;;;12.40;3.40;;;13.00;99.90;;;;;;5116053;28;20248;-58
2022/10/25 07:36:41;;;;;;;11.37;3.10;;;13.00;99.90;;;;;;5099847;28;20199;-59
2022/10/25 07:39:09;;;;;;;15.40;3.87;;;13.00;99.90;;;;;;5115800;28;20611;-59
2022/10/25 07:41:37;;;;;;;11.50;3.87;;;13.00;99.90;;;;;;5108524;28;20190;-59
2022/10/25 07:44:05;;;;;;;10.63;3.50;;;13.00;99.90;;;;;;5115713;28;20276;-59
2022/10/25 07:46:37;;;;;;;14.70;3.50;;;13.10;99.90;;;;;;5095980;28;20270;-59
2022/10/25 07:49:06;;;;;;;12.27;4.03;;;13.10;99.90;;;;;;5080437;28;20195;-59
2022/10/25 07:51:35;;;;;;;9.40;3.30;;;13.10;99.90;;;;;;5116470;27;20190;-59
2022/10/25 07:54:04;;;;;;;6.73;3.67;;;13.10;99.90;;;;;;5116133;28;20660;-59
2022/10/25 07:56:32;;;;;;;12.47;4.20;;;13.10;99.90;;;;;;5116117;28;20553;-58
2022/10/25 07:59:00;;;;;;;13.10;3.90;;;13.10;99.90;;;;;;5110033;28;20685;-58
2022/10/25 08:01:29;;;;;;;12.03;4.17;;;13.20;99.90;;;;;;5115749;28;20193;-58
2022/10/25 08:03:57;;;;;;;17.87;4.67;;;13.30;99.90;;;;;;5097518;28;20193;-58
2022/10/25 08:06:26;;;;;;;11.37;4.53;;;13.30;99.90;;;;;;5115493;28;20310;-58
2022/10/25 08:08:57;;;;;;;10.07;4.30;;;13.40;99.90;;;;;;5096423;28;20191;-58
2022/10/25 08:11:41;;;;;;;9.90;4.53;;;13.50;99.90;;;;;;5115569;28;20282;-59
2022/10/25 08:14:10;;;;;;;14.43;5.67;;;13.60;99.90;;;;;;5115466;28;20195;-58
2022/10/25 08:16:38;;;;;;;14.07;4.40;;;13.70;99.90;;;;;;5115660;28;20186;-58
2022/10/25 08:19:07;;;;;;;12.13;4.43;;;13.80;99.90;;;;;;5115609;28;20210;-58
2022/10/25 08:21:35;;;;;;;11.60;3.50;;;13.80;99.90;;;;;;5120282;27;20288;-59
2022/10/25 08:24:06;;;;;;;14.37;3.90;;;13.70;99.90;;;;;;5096143;28;20234;-58
2022/10/25 08:26:34;;;;;;;10.40;3.47;;;13.80;99.90;;;;;;5115314;28;20621;-58
2022/10/25 08:29:05;;;;;;;9.03;3.60;;;13.70;99.90;;;;;;5115326;28;20273;-58
2022/10/25 08:31:33;;;;;;;12.10;3.30;;;13.80;99.90;;;;;;5115666;28;20198;-58
2022/10/25 08:34:01;;;;;;;11.57;3.30;;;13.80;99.90;;;;;;5108144;28;20202;-58
2022/10/25 08:36:30;;;;;;;9.37;3.17;;;13.80;99.90;;;;;;5096974;28;20199;-58
2022/10/25 08:38:58;;;;;;;7.60;3.33;;;13.80;99.90;;;;;;5114967;28;20195;-59
2022/10/25 08:41:36;;;;;;;8.00;3.47;;;13.90;99.90;;;;;;5115047;28;20198;-58
2022/10/25 08:44:17;;;;;;;7.63;3.13;;;14.00;99.90;;;;;;5114601;28;20221;-59
2022/10/25 08:46:54;;;;;;;8.80;2.70;;;14.00;99.90;;;;;;5096571;28;20194;-58
2022/10/25 08:49:28;;;;;;;15.47;3.40;;;14.00;99.90;;;;;;5103425;28;20203;-58
2022/10/25 08:51:58;;;;;;;6.40;3.03;;;14.10;99.90;;;;;;5105628;28;20191;-58
2022/10/25 08:54:29;;;;;;;11.03;3.00;;;14.20;99.90;;;;;;5096387;28;20187;-58
2022/10/25 08:57:07;;;;;;;10.23;3.10;;;14.30;99.90;;;;;;5105067;28;20206;-59
2022/10/25 08:59:48;;;;;;;5.37;2.50;;;14.30;99.90;;;;;;5109870;28;20581;-58
2022/10/25 09:02:33;;;;;;;15.07;3.13;;;14.30;99.90;;;;;;5099883;28;20226;-57
2022/10/25 09:05:02;;;;;;;7.37;2.90;;;14.30;99.90;;;;;;5094286;28;20194;-58
2022/10/25 09:08:00;;;;;;;11.87;3.13;;;14.40;99.90;;;;;;5106789;28;20242;-58
2022/10/25 09:10:42;;;;;;;11.70;2.90;;;14.60;99.90;;;;;;5114143;28;20190;-58
2022/10/25 09:13:25;;;;;;;9.60;2.70;;;14.70;99.90;;;;;;5093998;28;20697;-58
2022/10/25 09:16:01;;;;;;;9.13;2.80;;;14.80;99.90;;;;;;5080132;27;20677;-57
2022/10/25 09:18:37;;;;;;;8.17;2.70;;;14.80;99.90;;;;;;5095698;28;20698;-58
2022/10/25 09:21:14;;;;;;;7.03;2.20;;;14.90;99.90;;;;;;5108430;28;20209;-58
2022/10/25 09:23:58;;;;;;;11.23;2.77;;;15.00;99.90;;;;;;5109682;28;20199;-58
2022/10/25 09:26:39;;;;;;;8.10;2.70;;;15.00;99.90;;;;;;5114068;28;20201;-58
2022/10/25 09:29:17;;;;;;;7.47;2.67;;;15.10;99.90;;;;;;5111402;28;20199;-59
2022/10/25 09:31:50;;;;;;;8.17;2.40;;;15.20;99.90;;;;;;5113418;28;20188;-57
2022/10/25 09:34:21;;;;;;;9.57;2.20;;;15.40;99.90;;;;;;5113219;28;20649;-58
2022/10/25 09:36:53;;;;;;;5.83;2.23;;;15.80;99.90;;;;;;5113591;28;20203;-60
2022/10/25 09:39:35;;;;;;;8.47;2.73;;;16.00;99.90;;;;;;5113726;28;20223;-59
2022/10/25 09:42:06;;;;;;;4.90;2.40;;;16.10;99.90;;;;;;5108439;28;20199;-58
2022/10/25 09:44:41;;;;;;;9.57;2.57;;;16.20;99.90;;;;;;5103218;28;20244;-58
2022/10/25 09:47:19;;;;;;;6.80;2.70;;;16.40;99.90;;;;;;5113910;28;20201;-58
2022/10/25 09:49:56;;;;;;;9.67;2.47;;;16.20;99.90;;;;;;5084008;28;20189;-58
2022/10/25 09:52:31;;;;;;;8.27;2.73;;;16.30;99.90;;;;;;5113700;28;20192;-58
2022/10/25 09:55:13;;;;;;;4.90;2.07;;;16.30;99.90;;;;;;5095685;28;20205;-58
2022/10/25 09:57:42;;;;;;;8.93;2.57;;;16.50;99.90;;;;;;5095560;28;20193;-59
2022/10/25 10:00:15;;;;;;;4.20;2.37;;;16.70;99.90;;;;;;5095491;28;20224;-58
2022/10/25 10:03:22;;;;;;;4.83;2.43;;;16.70;99.90;;;;;;5108466;27;20245;-58
2022/10/25 10:06:19;;;;;;;6.27;1.80;;;16.80;99.90;;;;;;5075362;28;20682;-58
2022/10/25 10:08:50;;;;;;;5.90;2.77;;;16.70;99.90;;;;;;5109698;28;20194;-58
2022/10/25 10:11:20;;;;;;;6.93;2.30;;;16.60;99.90;;;;;;5113781;28;20209;-58
2022/10/25 10:13:52;;;;;;;10.03;2.53;;;16.60;99.90;;;;;;5095216;28;20191;-57
2022/10/25 10:16:25;;;;;;;6.47;2.33;;;16.70;99.90;;;;;;5122909;28;20201;-58
2022/10/25 10:19:14;;;;;;;8.20;2.07;;;16.70;99.90;;;;;;5088094;28;20253;-58
2022/10/25 10:21:43;;;;;;;6.10;2.07;;;16.70;99.90;;;;;;5092630;28;20190;-58
2022/10/25 10:24:17;;;;;;;6.80;2.00;;;16.70;99.90;;;;;;5092367;28;20193;-58
2022/10/25 10:26:47;;;;;;;7.73;1.90;;;16.80;99.90;;;;;;5113431;28;20186;-58
2022/10/25 10:29:20;;;;;;;7.63;2.40;;;16.90;99.90;;;;;;5113424;28;20197;-58
2022/10/25 10:31:51;;;;;;;7.00;2.13;;;17.00;99.90;;;;;;5113695;28;20189;-58
2022/10/25 10:34:26;;;;;;;6.63;2.23;;;17.10;99.90;;;;;;5128985;27;20196;-59
2022/10/25 10:37:16;;;;;;;6.50;2.33;;;17.10;99.90;;;;;;5119995;27;20220;-58
2022/10/25 10:39:49;;;;;;;6.37;2.07;;;17.30;99.90;;;;;;5138150;27;20249;-59
2022/10/25 10:42:19;;;;;;;6.50;2.23;;;17.40;99.90;;;;;;5117632;27;20198;-59
2022/10/25 10:45:03;;;;;;;9.53;3.00;;;17.40;99.90;;;;;;5116966;28;20263;-58
2022/10/25 10:47:37;;;;;;;6.03;2.30;;;17.40;99.90;;;;;;5117380;28;20567;-58
2022/10/25 10:50:12;;;;;;;6.23;2.30;;;17.40;99.90;;;;;;5098784;28;20202;-60
2022/10/25 10:52:44;;;;;;;9.03;2.90;;;17.50;99.90;;;;;;5116995;28;20190;-59
2022/10/25 10:55:18;;;;;;;8.93;2.83;;;17.60;99.90;;;;;;5117371;28;20657;-58
2022/10/25 10:57:46;;;;;;;6.50;3.00;;;17.60;99.90;;;;;;5107283;28;20191;-59
2022/10/25 11:00:22;;;;;;;10.50;3.47;;;17.60;99.90;;;;;;5078335;28;20238;-57
2022/10/25 11:02:52;;;;;;;7.80;3.30;;;17.60;99.90;;;;;;5111070;28;20197;-56
2022/10/25 11:05:26;;;;;;;7.40;2.80;;;17.80;99.90;;;;;;5098629;28;20222;-57
2022/10/25 11:07:56;;;;;;;7.43;2.97;;;17.80;99.90;;;;;;5118712;27;20241;-57
2022/10/25 11:10:34;;;;;;;9.10;2.73;;;17.40;99.90;;;;;;5097839;28;20191;-57
2022/10/25 11:13:11;;;;;;;11.00;3.50;;;17.20;99.90;;;;;;5108890;28;20638;-57
2022/10/25 11:16:18;;;;;;;4.57;2.57;;;17.10;99.90;;;;;;5099327;28;20207;-58
2022/10/25 11:19:08;;;;;;;6.33;2.77;;;17.30;99.90;;;;;;5087677;28;20231;-57
2022/10/25 11:21:56;;;;;;;2.37;1.87;;;17.70;99.90;;;;;;5065448;28;20202;-58
2022/10/25 11:24:31;;;;;;;9.83;2.10;;;18.00;99.90;;;;;;5078387;28;20587;-58
2022/10/25 11:27:11;;;;;;;5.20;1.73;;;18.30;99.90;;;;;;5111745;28;20598;-57
2022/10/25 11:30:01;;;;;;;4.17;1.87;;;18.50;99.90;;;;;;5116277;28;20197;-57
2022/10/25 11:32:57;;;;;;;5.70;1.73;;;18.30;99.90;;;;;;5116565;28;20191;-57
2022/10/25 11:35:39;;;;;;;9.70;1.90;;;17.90;99.90;;;;;;5116191;28;20197;-57
2022/10/25 11:38:16;;;;;;;5.37;1.77;;;17.80;99.90;;;;;;5096111;28;20206;-57
2022/10/25 11:40:53;;;;;;;5.77;1.70;;;17.90;99.90;;;;;;5096009;28;20215;-57
2022/10/25 11:43:38;;;;;;;4.43;1.67;;;18.20;99.90;;;;;;5109302;28;20202;-57
2022/10/25 11:46:14;;;;;;;5.57;1.50;;;18.10;99.90;;;;;;5098042;28;20205;-57
2022/10/25 11:48:55;;;;;;;6.73;1.93;;;18.00;99.90;;;;;;5115966;28;20206;-57
2022/10/25 11:51:37;;;;;;;7.90;1.90;;;18.00;99.90;;;;;;5116168;28;20194;-57
2022/10/25 11:54:28;;;;;;;4.97;1.80;;;18.10;99.90;;;;;;5116236;28;20194;-57
2022/10/25 11:57:06;;;;;;;7.27;1.70;;;18.10;99.90;;;;;;5080608;28;20210;-57
2022/10/25 11:59:46;;;;;;;7.10;1.80;;;18.10;99.90;;;;;;5077640;28;20219;-57
2022/10/25 12:02:34;;;;;;;9.20;2.20;;;18.10;99.90;;;;;;5088210;28;20179;-57
2022/10/25 12:05:17;;;;;;;3.77;1.53;;;18.50;99.90;;;;;;5095990;28;20665;-57
2022/10/25 12:07:52;;;;;;;2.83;1.70;;;18.70;99.90;;;;;;5080364;28;20227;-57
2022/10/25 12:10:28;;;;;;;6.77;2.20;;;18.90;99.90;;;;;;5115962;28;20227;-57
2022/10/25 12:13:00;;;;;;;8.47;1.67;;;18.90;99.90;;;;;;5115878;28;20198;-57
2022/10/25 12:15:37;;;;;;;2.67;1.60;;;18.90;99.90;;;;;;5102128;28;20206;-57
2022/10/25 12:18:07;;;;;;;4.50;1.67;;;18.90;99.90;;;;;;5115805;28;20198;-57
2022/10/25 12:20:37;;;;;;;5.90;1.73;;;19.10;99.90;;;;;;5096873;28;20213;-58
2022/10/25 12:23:12;;;;;;;4.77;1.70;;;19.20;99.90;;;;;;5109824;27;20187;-58
2022/10/25 12:25:44;;;;;;;3.70;1.60;;;19.30;99.90;;;;;;5086687;28;20204;-58
2022/10/25 12:28:19;;;;;;;4.17;1.60;;;19.60;99.90;;;;;;5127552;27;20221;-57
2022/10/25 12:30:49;;;;;;;4.13;1.30;;;19.70;99.90;;;;;;5115001;28;20190;-57
2022/10/25 12:33:30;;;;;;;3.87;1.90;;;19.80;99.90;;;;;;5107741;28;20202;-57
2022/10/25 12:36:04;;;;;;;5.70;1.57;;;19.90;99.90;;;;;;5088552;28;20527;-58
2022/10/25 12:38:36;;;;;;;4.30;1.37;;;19.80;99.90;;;;;;5115338;28;20195;-57
2022/10/25 12:41:08;;;;;;;4.60;1.60;;;19.70;99.90;;;;;;5094697;28;20694;-58
2022/10/25 12:43:44;;;;;;;2.90;1.57;;;19.30;99.90;;;;;;5094635;28;20569;-57
2022/10/25 12:46:37;;;;;;;7.17;1.60;;;19.10;99.90;;;;;;5113051;28;20198;-57
2022/10/25 12:49:33;;;;;;;7.83;1.43;;;19.30;99.90;;;;;;5102432;28;20558;-57
2022/10/25 12:52:17;;;;;;;3.13;1.63;;;19.40;99.90;;;;;;5109911;27;20202;-57
2022/10/25 12:55:03;;;;;;;4.53;1.70;;;19.50;99.90;;;;;;5096629;28;20202;-57
2022/10/25 12:57:40;;;;;;;3.87;1.60;;;19.50;99.90;;;;;;5106650;28;20202;-57
2022/10/25 13:00:17;;;;;;;5.00;1.50;;;19.40;99.90;;;;;;5098884;28;20222;-57
2022/10/25 13:03:31;;;;;;;5.30;1.63;;;19.40;99.90;;;;;;5110855;28;20644;-57
2022/10/25 13:06:29;;;;;;;4.77;1.53;;;19.20;99.90;;;;;;5104391;28;20194;-57
2022/10/25 13:09:04;;;;;;;2.73;1.40;;;18.70;99.90;;;;;;5098438;28;20222;-57
2022/10/25 13:11:40;;;;;;;2.20;1.37;;;18.50;99.90;;;;;;5076121;28;20175;-57
2022/10/25 13:14:27;;;;;;;4.00;1.60;;;18.50;99.90;;;;;;5087151;28;20207;-57
2022/10/25 13:17:28;;;;;;;8.87;1.67;;;18.50;99.90;;;;;;5113621;28;20187;-57
2022/10/25 13:20:35;;;;;;;5.43;1.40;;;18.60;99.90;;;;;;5099804;27;20209;-57